Etusivu
METAR-TAF:

METAR-TAF

Lentoasemat :

Granite Falls Municipal Airport (Lenzen-Roe Memorial Field)

Granite Falls, Minnesota, Yhdysvallat

Leveyspiiri: 44-45-11N, Pituuspiiri: 095-33-21W, korkeus merenpinnasta: 319 m

Tämänhetkinen sää

Tämä raportti tehtiin 22 minuuttia sitten, kello 01.36 UTC
tyyntä
Lämpötila 18°C
Kosteus 94%
Ilmanpaine 1011 hPa
Näkyvyys: 11.3 km
Hajonneita pilviä 8000 ft:n korkeudessa
Pilvistä 10000 ft:n korkeudessa

METAR: KGDB 270136Z AUTO 00000KT 7SM BKN080 OVC100 18/17 A2985 RMK AO2 T01820170

Aika: 20:58 (01:58 UTC)


TAF: puuttuu

Säähavainnot ja -ennusteet yli 4000 lentoasemalta (METAR- ja TAF-raportit).

Käytössä olevat sääasemat on merkitty karttaan keltaisilla ja punaisilla pisteillä.

Aseta hiiri pisteen päälle nähdäksesi sääaseman nimen.

Klikkaa sitten nähdäksesi säähavainnot ja -ennusteet.

Kartan vaihtaminen: klikkaa mustalla rastilla varustettuja vihreitä pisteitä, niin voit zoomata sisään; viivalla varustettua vihreää pistettä, niin voit zoomata ulos tai vihreitä nuolia, niin pääset viereisille kartoille.


METAR-TAF: